createdAt,value
2023-03-30T00:01:10.062Z,70.61
2023-03-30T00:03:39.273Z,70.56
2023-03-30T00:06:09.150Z,71.05
2023-03-30T00:08:38.545Z,70.37
2023-03-30T00:11:10.458Z,70.36
2023-03-30T00:13:39.080Z,72.37
2023-03-30T00:16:09.417Z,73.40
2023-03-30T00:18:39.543Z,74.03
2023-03-30T00:21:09.600Z,71.70
2023-03-30T00:23:37.894Z,71.49
2023-03-30T00:26:08.830Z,71.16
2023-03-30T00:28:37.025Z,71.50
2023-03-30T00:31:05.233Z,72.79
2023-03-30T00:33:44.904Z,72.14
2023-03-30T00:36:14.896Z,72.12
2023-03-30T00:38:43.138Z,71.44
2023-03-30T00:41:12.766Z,70.05
2023-03-30T00:43:56.456Z,68.79
2023-03-30T00:46:25.521Z,69.41
2023-03-30T00:48:57.854Z,69.79
2023-03-30T00:51:27.637Z,70.71
2023-03-30T00:54:00.626Z,70.69
2023-03-30T00:56:31.921Z,71.18
2023-03-30T00:59:02.638Z,72.00
2023-03-30T01:01:34.571Z,71.23
2023-03-30T01:04:04.232Z,72.12
2023-03-30T01:06:34.018Z,72.90
2023-03-30T01:09:02.208Z,70.30
2023-03-30T01:11:31.755Z,70.13
2023-03-30T01:14:03.241Z,70.95
2023-03-30T01:16:41.251Z,73.36
2023-03-30T01:19:29.794Z,74.13
2023-03-30T01:22:28.308Z,73.36
2023-03-30T01:25:22.256Z,72.63
2023-03-30T01:28:23.170Z,72.83
2023-03-30T01:31:17.344Z,73.67
2023-03-30T01:34:39.323Z,75.20
2023-03-30T01:37:37.041Z,74.05
2023-03-30T01:40:13.251Z,75.02
2023-03-30T01:42:51.715Z,75.57
2023-03-30T01:45:28.876Z,75.09
2023-03-30T01:48:03.801Z,74.35
2023-03-30T01:50:38.250Z,74.20
2023-03-30T01:53:16.122Z,77.42
2023-03-30T01:55:49.628Z,77.53
2023-03-30T01:58:22.906Z,76.79
2023-03-30T02:00:52.894Z,80.51
2023-03-30T02:03:28.513Z,83.40
2023-03-30T02:06:04.066Z,86.44
2023-03-30T02:08:35.121Z,87.53
2023-03-30T02:11:05.508Z,87.84
2023-03-30T02:13:35.530Z,86.13
2023-03-30T02:16:08.702Z,86.11
2023-03-30T02:18:38.856Z,84.89
2023-03-30T02:21:07.109Z,87.71
2023-03-30T02:23:39.992Z,90.53
2023-03-30T02:26:10.641Z,90.79
2023-03-30T02:28:38.792Z,90.03
2023-03-30T02:31:13.869Z,89.74
2023-03-30T02:33:54.670Z,91.41
2023-03-30T02:36:41.790Z,92.38
2023-03-30T02:39:22.511Z,93.01
2023-03-30T02:42:09.385Z,92.03
2023-03-30T02:44:44.375Z,93.15
2023-03-30T02:47:19.565Z,94.23
2023-03-30T02:49:57.195Z,94.43
2023-03-30T02:52:33.840Z,91.83
2023-03-30T02:55:06.195Z,88.73
2023-03-30T02:57:38.379Z,88.84
2023-03-30T03:00:12.917Z,89.43
2023-03-30T03:02:42.518Z,90.11
2023-03-30T03:05:11.729Z,89.74
2023-03-30T03:07:40.911Z,89.41
2023-03-30T03:10:09.223Z,89.39
2023-03-30T03:12:38.566Z,89.27
2023-03-30T03:15:06.915Z,88.04
2023-03-30T03:17:35.724Z,89.28
2023-03-30T03:20:04.205Z,89.25
2023-03-30T03:22:32.590Z,89.08
2023-03-30T03:25:02.682Z,89.32
2023-03-30T03:27:30.820Z,88.71
2023-03-30T03:30:00.206Z,89.32
2023-03-30T03:32:28.238Z,89.83
2023-03-30T03:34:56.103Z,89.31
2023-03-30T03:37:23.927Z,89.00
2023-03-30T03:39:51.810Z,89.56
2023-03-30T03:42:19.636Z,90.48
2023-03-30T03:44:47.557Z,91.29
2023-03-30T03:47:16.975Z,90.54
2023-03-30T03:49:44.896Z,90.61
2023-03-30T03:52:12.800Z,90.79
2023-03-30T03:54:40.685Z,91.12
2023-03-30T03:57:08.694Z,91.64
2023-03-30T03:59:36.626Z,91.00
2023-03-30T04:02:05.667Z,90.35
2023-03-30T04:04:35.023Z,91.06
2023-03-30T04:07:02.930Z,92.11
2023-03-30T04:09:31.186Z,92.94
2023-03-30T04:11:59.063Z,93.85
2023-03-30T04:14:27.079Z,94.80
2023-03-30T04:16:58.144Z,92.67
2023-03-30T04:19:27.898Z,94.32
2023-03-30T04:21:59.073Z,95.11
2023-03-30T04:24:28.057Z,94.29
2023-03-30T04:26:57.850Z,91.65
2023-03-30T04:29:26.249Z,92.39
2023-03-30T04:31:54.139Z,92.32
2023-03-30T04:34:22.767Z,92.34
2023-03-30T04:36:50.721Z,93.45
2023-03-30T04:39:20.930Z,93.88
2023-03-30T04:41:48.850Z,94.43
2023-03-30T04:44:20.486Z,94.14
2023-03-30T04:46:48.340Z,93.76
2023-03-30T04:49:16.573Z,93.52
2023-03-30T04:51:44.415Z,92.99
2023-03-30T04:54:12.467Z,93.94
2023-03-30T04:56:41.794Z,94.48
2023-03-30T04:59:09.721Z,94.52
2023-03-30T05:01:37.663Z,93.23
2023-03-30T05:04:05.629Z,92.42
2023-03-30T05:06:33.491Z,93.25
2023-03-30T05:09:01.725Z,93.26
2023-03-30T05:11:29.704Z,95.30
2023-03-30T05:13:59.036Z,95.48
2023-03-30T05:16:27.320Z,94.88
2023-03-30T05:18:55.447Z,94.06
2023-03-30T05:21:23.601Z,93.99
2023-03-30T05:23:51.609Z,91.42
2023-03-30T05:26:19.475Z,91.46
2023-03-30T05:28:48.041Z,91.95
2023-03-30T05:31:18.242Z,94.17
2023-03-30T05:33:46.365Z,95.29
2023-03-30T05:36:14.414Z,96.40
2023-03-30T05:38:42.421Z,95.88
2023-03-30T05:41:10.304Z,95.04
2023-03-30T05:43:38.237Z,92.69
2023-03-30T05:46:06.325Z,91.85
2023-03-30T05:48:35.613Z,90.15
2023-03-30T05:51:03.690Z,89.34
2023-03-30T05:53:31.879Z,89.71
2023-03-30T05:55:59.764Z,90.06
2023-03-30T05:58:27.645Z,87.68
2023-03-30T06:00:58.487Z,87.17
2023-03-30T06:03:26.510Z,88.41
2023-03-30T06:05:56.025Z,87.58
2023-03-30T06:08:24.498Z,89.26
2023-03-30T06:10:56.127Z,90.21
2023-03-30T06:13:24.138Z,90.52
2023-03-30T06:15:52.294Z,90.74
2023-03-30T06:18:20.425Z,87.99
2023-03-30T06:20:49.000Z,87.48
2023-03-30T06:23:19.112Z,86.79
2023-03-30T06:25:47.856Z,86.66
2023-03-30T06:28:16.212Z,87.47
2023-03-30T06:30:45.684Z,86.96
2023-03-30T06:33:13.982Z,88.27
2023-03-30T06:35:46.224Z,87.75
2023-03-30T06:38:14.477Z,88.69
2023-03-30T06:40:44.468Z,87.33
2023-03-30T06:43:18.694Z,87.48
2023-03-30T06:45:52.199Z,88.79
2023-03-30T06:48:30.476Z,89.52
2023-03-30T06:50:59.362Z,88.65
2023-03-30T06:53:28.404Z,86.74
2023-03-30T06:55:59.237Z,84.48
2023-03-30T06:58:28.863Z,83.44
2023-03-30T07:00:57.273Z,83.45
2023-03-30T07:03:26.681Z,82.97
2023-03-30T07:05:55.754Z,82.58
2023-03-30T07:08:24.533Z,81.77
2023-03-30T07:10:52.769Z,80.66
2023-03-30T07:13:22.351Z,79.03
2023-03-30T07:15:52.414Z,78.04
2023-03-30T07:18:20.893Z,77.73
2023-03-30T07:20:49.175Z,78.56
2023-03-30T07:23:17.684Z,77.35
2023-03-30T07:25:47.081Z,77.87
2023-03-30T07:28:16.449Z,76.94
2023-03-30T07:30:46.309Z,75.69
2023-03-30T07:33:14.930Z,75.20
2023-03-30T07:35:46.920Z,74.22
2023-03-30T07:38:15.540Z,72.69
2023-03-30T07:40:43.710Z,71.41
2023-03-30T07:43:12.150Z,71.92
2023-03-30T07:45:40.487Z,70.42
2023-03-30T07:48:10.399Z,68.82
2023-03-30T07:50:38.313Z,67.81
2023-03-30T07:53:07.194Z,66.26
2023-03-30T07:55:35.315Z,66.91
2023-03-30T07:58:04.690Z,65.66
2023-03-30T08:00:32.867Z,64.76
2023-03-30T08:03:01.915Z,64.42
2023-03-30T08:05:31.585Z,63.96
2023-03-30T08:07:59.796Z,65.50
2023-03-30T08:10:27.941Z,66.27
2023-03-30T08:12:56.098Z,64.88
2023-03-30T08:15:24.299Z,63.23
2023-03-30T08:17:52.523Z,61.90
2023-03-30T08:20:20.782Z,60.40
2023-03-30T08:22:50.717Z,60.25
2023-03-30T08:25:19.000Z,59.76
2023-03-30T08:27:47.448Z,59.08
2023-03-30T08:30:17.178Z,57.46
2023-03-30T08:32:45.493Z,58.13
2023-03-30T08:35:13.712Z,57.83
2023-03-30T08:37:42.214Z,57.22
2023-03-30T08:40:13.739Z,57.55
2023-03-30T08:43:01.114Z,57.70
2023-03-30T08:45:36.639Z,58.31
2023-03-30T08:48:07.130Z,57.85
2023-03-30T08:50:36.740Z,56.55
2023-03-30T08:53:07.567Z,56.63
2023-03-30T08:55:42.991Z,55.62
2023-03-30T08:58:20.983Z,55.50
2023-03-30T09:00:55.161Z,55.75
2023-03-30T09:03:29.363Z,56.57
2023-03-30T09:06:02.227Z,56.57
2023-03-30T09:08:34.203Z,57.50
2023-03-30T09:11:11.562Z,56.81
2023-03-30T09:13:45.548Z,54.59
2023-03-30T09:16:20.534Z,56.08
2023-03-30T09:18:53.891Z,56.23
2023-03-30T09:21:24.272Z,56.10
2023-03-30T09:23:53.933Z,54.51
2023-03-30T09:26:34.712Z,54.63
2023-03-30T09:29:08.602Z,55.51
2023-03-30T09:31:42.006Z,54.25
2023-03-30T09:34:21.773Z,55.80
2023-03-30T09:36:57.463Z,55.75
2023-03-30T09:39:27.773Z,54.87
2023-03-30T09:42:11.723Z,55.75
2023-03-30T09:44:46.282Z,57.13
2023-03-30T09:47:25.044Z,55.47
2023-03-30T09:50:01.117Z,55.65
2023-03-30T09:52:32.203Z,55.88
2023-03-30T09:55:20.789Z,56.40
2023-03-30T09:57:51.464Z,55.98
2023-03-30T10:00:28.266Z,56.97
2023-03-30T10:02:58.666Z,56.24
2023-03-30T10:05:27.777Z,56.58
2023-03-30T10:07:58.818Z,56.47
2023-03-30T10:10:34.507Z,56.20
2023-03-30T10:13:12.816Z,56.47
2023-03-30T10:15:44.312Z,56.54
2023-03-30T10:18:28.031Z,57.39
2023-03-30T10:21:03.923Z,58.51
2023-03-30T10:23:34.518Z,56.52
2023-03-30T10:26:04.442Z,56.90
2023-03-30T10:28:36.567Z,57.77
2023-03-30T10:31:09.842Z,56.66
2023-03-30T10:33:42.586Z,57.74
2023-03-30T10:36:12.652Z,57.81
2023-03-30T10:38:43.302Z,58.29
2023-03-30T10:41:14.251Z,57.87
2023-03-30T10:43:45.383Z,54.58
2023-03-30T10:46:19.424Z,55.33
2023-03-30T10:49:00.478Z,55.79
2023-03-30T10:51:41.064Z,55.99
2023-03-30T10:54:16.737Z,58.21
2023-03-30T10:56:48.389Z,57.38
2023-03-30T10:59:31.174Z,58.55
2023-03-30T11:02:19.018Z,57.95
2023-03-30T11:04:49.617Z,59.04
2023-03-30T11:07:25.244Z,59.06
2023-03-30T11:09:56.344Z,59.70
2023-03-30T11:12:27.575Z,58.44
2023-03-30T11:15:01.391Z,59.01
2023-03-30T11:17:35.224Z,59.98
2023-03-30T11:20:17.698Z,60.40
2023-03-30T11:22:50.386Z,59.94
2023-03-30T11:25:22.291Z,60.08
2023-03-30T11:27:56.616Z,59.91
2023-03-30T11:30:31.292Z,60.52
2023-03-30T11:33:07.191Z,60.12
2023-03-30T11:35:40.781Z,61.50
2023-03-30T11:38:16.084Z,64.25
2023-03-30T11:40:47.206Z,61.08
2023-03-30T11:43:17.392Z,62.26
2023-03-30T11:46:04.102Z,61.78
2023-03-30T11:48:44.245Z,61.58
2023-03-30T11:51:23.645Z,60.12
2023-03-30T11:54:00.302Z,60.79
2023-03-30T11:56:36.495Z,62.45
2023-03-30T11:59:07.841Z,61.78
2023-03-30T12:02:01.422Z,61.60
2023-03-30T12:04:38.665Z,60.76
2023-03-30T12:07:20.771Z,60.79
2023-03-30T12:09:54.999Z,60.58
2023-03-30T12:12:32.920Z,60.64
2023-03-30T12:15:12.955Z,62.72
2023-03-30T12:17:49.605Z,61.85
2023-03-30T12:20:29.338Z,56.17
2023-03-30T12:23:01.798Z,56.87
2023-03-30T12:25:37.046Z,57.86
2023-03-30T12:28:12.510Z,58.56
2023-03-30T12:30:48.627Z,58.25
2023-03-30T12:33:27.730Z,59.14
2023-03-30T12:36:00.714Z,59.00
2023-03-30T12:38:39.048Z,59.67
2023-03-30T12:41:15.451Z,59.66
2023-03-30T12:43:53.997Z,58.81
2023-03-30T12:46:29.806Z,60.10
2023-03-30T12:49:06.084Z,60.66
2023-03-30T12:51:49.305Z,59.32
2023-03-30T12:54:45.846Z,59.08
2023-03-30T12:57:27.479Z,57.84
2023-03-30T13:00:22.064Z,57.97
2023-03-30T13:03:11.361Z,58.47
2023-03-30T13:05:43.902Z,58.83
2023-03-30T13:08:22.154Z,58.30
2023-03-30T13:10:50.624Z,57.14
2023-03-30T13:13:24.296Z,55.97
2023-03-30T13:15:57.305Z,54.32
2023-03-30T13:18:41.048Z,54.21
2023-03-30T13:21:22.932Z,53.29
2023-03-30T13:24:04.332Z,52.68
2023-03-30T13:26:43.862Z,52.70
2023-03-30T13:29:15.327Z,52.48
2023-03-30T13:32:04.896Z,53.65
2023-03-30T13:35:06.223Z,52.94
2023-03-30T13:38:03.964Z,51.34
2023-03-30T13:40:48.821Z,51.94
2023-03-30T13:43:41.404Z,51.22
2023-03-30T13:46:17.782Z,51.08
2023-03-30T13:49:09.770Z,50.74
2023-03-30T13:51:39.810Z,50.34
2023-03-30T13:54:15.532Z,49.73
2023-03-30T13:56:49.942Z,48.63
2023-03-30T13:59:20.988Z,48.15
2023-03-30T14:01:53.716Z,47.59
2023-03-30T14:04:22.260Z,46.36
2023-03-30T14:06:52.620Z,45.94
2023-03-30T14:09:23.673Z,45.75
2023-03-30T14:11:54.299Z,47.04
2023-03-30T14:14:28.187Z,46.68
2023-03-30T14:16:57.796Z,46.74
2023-03-30T14:19:27.739Z,46.98
2023-03-30T14:22:00.352Z,47.11
2023-03-30T14:24:32.201Z,45.95
2023-03-30T14:27:04.862Z,45.15
2023-03-30T14:29:33.551Z,43.79
2023-03-30T14:32:09.189Z,43.55
2023-03-30T14:34:38.554Z,43.51
2023-03-30T14:37:08.996Z,44.22
2023-03-30T14:39:42.763Z,46.19
2023-03-30T14:42:17.256Z,46.83
2023-03-30T14:44:47.428Z,47.68
2023-03-30T14:47:16.628Z,48.75
2023-03-30T14:49:47.626Z,49.29
2023-03-30T14:52:20.022Z,50.69
2023-03-30T14:55:05.149Z,51.52
2023-03-30T14:57:38.261Z,54.30
2023-03-30T15:00:21.383Z,53.71
2023-03-30T15:02:53.528Z,53.84
2023-03-30T15:05:24.239Z,54.78
2023-03-30T15:07:53.880Z,53.89
2023-03-30T15:10:26.673Z,57.52
2023-03-30T15:12:58.224Z,56.50
2023-03-30T15:15:30.932Z,56.10
2023-03-30T15:17:59.794Z,55.94
2023-03-30T15:20:30.753Z,56.84
2023-03-30T15:22:59.272Z,56.28
2023-03-30T15:25:34.111Z,57.12
2023-03-30T15:28:05.322Z,56.88
2023-03-30T15:30:36.639Z,56.48
2023-03-30T15:33:07.610Z,56.96
2023-03-30T15:35:38.387Z,57.20
2023-03-30T15:38:17.357Z,57.27
2023-03-30T15:40:50.188Z,57.60
2023-03-30T15:43:22.835Z,57.93
2023-03-30T15:45:54.506Z,58.02
2023-03-30T15:48:25.867Z,58.14
2023-03-30T15:51:01.415Z,58.21
2023-03-30T15:53:36.727Z,58.89
2023-03-30T15:56:12.777Z,58.64
2023-03-30T15:58:41.607Z,58.91
2023-03-30T16:01:14.055Z,58.95
2023-03-30T16:03:51.728Z,60.58
2023-03-30T16:06:22.045Z,62.95
2023-03-30T16:08:50.220Z,63.03
2023-03-30T16:11:20.769Z,63.97
2023-03-30T16:13:50.244Z,64.01
2023-03-30T16:16:19.275Z,64.36
2023-03-30T16:18:47.568Z,63.78
2023-03-30T16:21:15.914Z,65.90
2023-03-30T16:23:44.206Z,66.85
2023-03-30T16:26:12.631Z,68.03
2023-03-30T16:28:42.987Z,69.43
2023-03-30T16:31:17.400Z,69.16
2023-03-30T16:33:45.729Z,68.56
2023-03-30T16:36:15.925Z,68.28
2023-03-30T16:38:44.403Z,68.54
2023-03-30T16:41:14.002Z,67.35
2023-03-30T16:43:43.565Z,69.65
2023-03-30T16:46:14.467Z,71.56
2023-03-30T16:48:42.797Z,70.30
2023-03-30T16:51:13.787Z,70.01
2023-03-30T16:53:42.343Z,69.78
2023-03-30T16:56:16.558Z,66.30
2023-03-30T16:58:46.327Z,66.18
2023-03-30T17:01:18.634Z,65.86
2023-03-30T17:03:47.370Z,65.85
2023-03-30T17:06:17.148Z,65.94
2023-03-30T17:08:45.992Z,66.02
2023-03-30T17:11:14.316Z,65.96
2023-03-30T17:13:43.267Z,66.28
2023-03-30T17:16:14.661Z,66.90
2023-03-30T17:18:43.007Z,66.90
2023-03-30T17:21:16.524Z,66.91
2023-03-30T17:23:47.947Z,67.04
2023-03-30T17:26:16.439Z,67.12
2023-03-30T17:28:45.022Z,68.39
2023-03-30T17:31:17.670Z,68.94
2023-03-30T17:33:46.017Z,70.08
2023-03-30T17:36:17.762Z,71.06
2023-03-30T17:38:46.261Z,72.53
2023-03-30T17:41:15.733Z,73.19
2023-03-30T17:43:44.575Z,74.25
2023-03-30T17:46:14.101Z,74.92
2023-03-30T17:48:43.967Z,77.01
2023-03-30T17:51:12.212Z,77.83
2023-03-30T17:53:40.423Z,79.31
2023-03-30T17:56:08.746Z,80.85
2023-03-30T17:58:37.720Z,81.80
2023-03-30T18:01:08.304Z,84.06
2023-03-30T18:03:39.233Z,84.81
2023-03-30T18:06:09.272Z,86.04
2023-03-30T18:08:39.035Z,87.33
2023-03-30T18:11:07.517Z,87.17
2023-03-30T18:13:36.104Z,87.58
2023-03-30T18:16:04.376Z,87.85
2023-03-30T18:18:32.822Z,88.04
2023-03-30T18:21:03.632Z,88.42
2023-03-30T18:23:34.961Z,88.35
2023-03-30T18:26:08.295Z,89.24
2023-03-30T18:28:40.649Z,89.12
2023-03-30T18:31:09.051Z,88.70
2023-03-30T18:33:37.377Z,88.56
2023-03-30T18:36:08.040Z,88.74
2023-03-30T18:38:38.058Z,88.58
2023-03-30T18:41:06.755Z,88.64
2023-03-30T18:43:35.883Z,88.69
2023-03-30T18:46:04.565Z,89.36
2023-03-30T18:48:32.906Z,90.91
2023-03-30T18:51:01.001Z,88.77
2023-03-30T18:53:30.242Z,87.99
2023-03-30T18:56:00.959Z,89.72
2023-03-30T18:58:31.052Z,90.68
2023-03-30T19:00:59.285Z,91.47
2023-03-30T19:03:28.405Z,91.99
2023-03-30T19:05:56.837Z,92.06
2023-03-30T19:08:26.309Z,91.98
2023-03-30T19:10:56.344Z,90.80
2023-03-30T19:13:27.438Z,90.55
2023-03-30T19:15:56.246Z,90.90
2023-03-30T19:18:24.455Z,91.54
2023-03-30T19:20:55.276Z,92.11
2023-03-30T19:23:23.386Z,92.85
2023-03-30T19:25:51.609Z,93.05
2023-03-30T19:28:20.411Z,92.93
2023-03-30T19:30:50.000Z,94.17
2023-03-30T19:33:20.848Z,94.65
2023-03-30T19:35:49.122Z,94.16
2023-03-30T19:38:17.578Z,95.04
2023-03-30T19:40:46.022Z,95.70
2023-03-30T19:43:14.404Z,97.02
2023-03-30T19:45:42.745Z,97.07
2023-03-30T19:48:12.257Z,97.51
2023-03-30T19:50:40.902Z,97.22
2023-03-30T19:53:09.502Z,97.27
2023-03-30T19:55:38.018Z,97.05
2023-03-30T19:58:06.151Z,97.02
2023-03-30T20:00:35.173Z,96.33
2023-03-30T20:03:03.822Z,93.55
2023-03-30T20:05:47.177Z,91.50
2023-03-30T20:10:50.280Z,91.25
2023-03-30T20:13:22.067Z,93.78
2023-03-30T20:15:50.300Z,93.96
2023-03-30T20:18:18.532Z,91.67
2023-03-30T20:20:48.200Z,91.69
2023-03-30T20:23:16.368Z,92.60
2023-03-30T20:25:46.522Z,93.30
2023-03-30T20:28:14.690Z,94.09
2023-03-30T20:30:43.010Z,94.92
2023-03-30T20:33:11.167Z,95.35
2023-03-30T20:35:40.059Z,95.47
2023-03-30T20:38:09.772Z,95.25
2023-03-30T20:40:37.994Z,95.61
2023-03-30T20:43:10.204Z,96.01
2023-03-30T20:45:46.145Z,96.06
2023-03-30T20:48:27.139Z,96.43
2023-03-30T20:50:55.941Z,96.35
2023-03-30T20:53:26.317Z,96.55
2023-03-30T20:55:54.473Z,97.50
2023-03-30T20:58:23.577Z,97.58
2023-03-30T21:00:53.174Z,97.41
2023-03-30T21:03:26.174Z,98.27
2023-03-30T21:06:00.829Z,98.93
2023-03-30T21:08:31.517Z,99.84
2023-03-30T21:10:59.846Z,100.00
2023-03-30T21:13:28.043Z,100.00
2023-03-30T21:15:59.767Z,100.00
2023-03-30T21:18:28.277Z,100.00
2023-03-30T21:20:56.977Z,100.00
2023-03-30T21:23:26.823Z,100.00
2023-03-30T21:25:58.538Z,100.00
2023-03-30T21:28:28.580Z,100.00
2023-03-30T21:30:57.824Z,100.00
2023-03-30T21:33:27.528Z,100.00
2023-03-30T21:35:57.835Z,100.00
2023-03-30T21:38:27.548Z,100.00
2023-03-30T21:40:59.181Z,100.00
2023-03-30T21:43:30.032Z,100.00
2023-03-30T21:45:59.757Z,100.00
2023-03-30T21:48:29.549Z,100.00
2023-03-30T21:51:02.054Z,100.00
2023-03-30T21:53:31.369Z,100.00
2023-03-30T21:56:01.253Z,100.00
2023-03-30T21:58:29.856Z,100.00
2023-03-30T22:01:08.995Z,100.00
2023-03-30T22:03:40.863Z,100.00
2023-03-30T22:06:10.853Z,100.00
2023-03-30T22:08:39.104Z,100.00
2023-03-30T22:11:10.476Z,100.00
2023-03-30T22:13:38.591Z,100.00
2023-03-30T22:16:08.950Z,100.00
2023-03-30T22:18:37.417Z,100.00
2023-03-30T22:21:08.893Z,100.00
2023-03-30T22:23:37.154Z,100.00
2023-03-30T22:26:06.807Z,100.00
2023-03-30T22:28:36.811Z,100.00
2023-03-30T22:31:08.200Z,100.00
2023-03-30T22:33:36.487Z,100.00
2023-03-30T22:36:05.440Z,100.00
2023-03-30T22:38:33.991Z,100.00
2023-03-30T22:41:05.479Z,100.00
2023-03-30T22:43:37.281Z,100.00
2023-03-30T22:46:06.152Z,100.00
2023-03-30T22:48:35.709Z,100.00
2023-03-30T22:51:04.914Z,100.00
2023-03-30T22:53:33.732Z,100.00
2023-03-30T22:56:02.701Z,100.00
2023-03-30T22:58:30.988Z,100.00
2023-03-30T23:01:03.800Z,100.00
2023-03-30T23:03:32.126Z,100.00
2023-03-30T23:06:01.805Z,100.00
2023-03-30T23:08:31.495Z,100.00
2023-03-30T23:11:03.987Z,100.00
2023-03-30T23:13:32.597Z,100.00
2023-03-30T23:16:02.113Z,100.00
2023-03-30T23:18:30.224Z,100.00
2023-03-30T23:20:58.334Z,100.00
2023-03-30T23:23:27.090Z,100.00
2023-03-30T23:25:55.243Z,100.00
2023-03-30T23:28:23.384Z,100.00
2023-03-30T23:30:51.463Z,100.00
2023-03-30T23:33:21.680Z,100.00
2023-03-30T23:35:50.965Z,100.00
2023-03-30T23:38:19.190Z,100.00
2023-03-30T23:40:47.342Z,100.00
2023-03-30T23:43:15.591Z,100.00
2023-03-30T23:45:45.068Z,100.00
2023-03-30T23:48:13.248Z,100.00
2023-03-30T23:50:42.769Z,100.00
2023-03-30T23:53:11.332Z,100.00
2023-03-30T23:55:41.312Z,100.00
2023-03-30T23:58:09.485Z,100.00
